Home > Products > Valid Products > TAF

000
FTUS45 KPSR 311100
TAFBLH
TAF
KBLH 311120Z 3112/0112 35005KT P6SM SCT250
     FM311600 19008KT P6SM FEW250
     FM312200 19012G18KT P6SM FEW250
     FM010100 20009KT P6SM SCT250=



000
FTUS45 KPSR 311100
TAFIWA
TAF
KIWA 311120Z 3112/0112 12008KT P6SM FEW150 SCT250
      AMD LTD TO CLD VIS AND WIND TIL 311300=



000
FTUS45 KPSR 311100
TAFPHX
TAF
KPHX 311120Z 3112/0112 11007KT P6SM FEW150 SCT250
     FM010000 VRB05KT P6SM FEW150
     FM010400 10005KT P6SM SCT250=



000
FTUS45 KPSR 311100
TAFIPL
TAF
KIPL 311120Z 3112/0112 26008KT P6SM FEW250
     FM010400 27013G20KT P6SM SCT250=



000
FTUS45 KPSR 310800 AAA
TAFPHX
TAF AMD
KPHX 310838Z 3109/0106 10005KT P6SM BKN150
     FM311700 15008KT P6SM FEW150
     FM010100 10005KT P6SM SCT250=



000
FTUS45 KPSR 310500
TAFBLH
TAF
KBLH 310521Z 3106/0106 VRB05KT P6SM BKN250
     FM311500 19008KT P6SM SCT250
     FM312200 19012G18KT P6SM SCT250
     FM010100 19010KT P6SM BKN250=



000
FTUS45 KPSR 310500
TAFIPL
TAF
KIPL 310521Z 3106/0106 29006KT P6SM BKN250
     FM311500 VRB03KT P6SM SCT250
     FM312200 26007KT P6SM SCT250
     FM010200 27014G25KT P6SM SCT250=



000
FTUS45 KPSR 310500
TAFPHX
TAF
KPHX 310521Z 3106/0106 08005KT P6SM BKN250
     FM311700 15010KT P6SM SCT250
     FM010100 14005KT P6SM BKN250=



000
FTUS45 KPSR 310500
TAFIWA
TAF
KIWA 310521Z 3106/0106 11005KT P6SM BKN250
     FM311600 14010KT P6SM SCT250
     FM010100 14005KT P6SM BKN250
      AMD LTD TO CLD VIS AND WIND TIL 311300=



000
FTUS45 KPSR 310200 AAA
TAFPHX
TAF AMD
KPHX 310256Z 3103/3124 VRB05KT P6SM BKN250
     FM310500 08005KT P6SM BKN250
     FM311700 12010KT P6SM SCT250=



000
FTUS45 KPSR 302300
TAFBLH
TAF
KBLH 302321Z 3100/3124 VRB05KT P6SM BKN250
     FM311500 19008KT P6SM SCT250
     FM312200 19012G18KT P6SM SCT250=



000
FTUS45 KPSR 302300
TAFPHX
TAF
KPHX 302321Z 3100/3124 VRB05KT P6SM BKN250
     FM310500 08005KT P6SM BKN250
     FM311700 12010KT P6SM SCT250=



000
FTUS45 KPSR 302300
TAFIWA
TAF
KIWA 302321Z 3100/3124 VRB05KT P6SM BKN250
     FM310300 11005KT P6SM BKN250
     FM311600 14010KT P6SM SCT250
      AMD LTD TO CLD VIS AND WIND 3103/3113=



000
FTUS45 KPSR 302300
TAFIPL
TAF
KIPL 302321Z 3100/3124 VRB03KT P6SM BKN250
     FM310300 29006KT P6SM BKN250
     FM311500 VRB03KT P6SM SCT250
     FM312200 26007KT P6SM SCT250=



000
FTUS45 KPSR 302100 AAA
TAFPHX
TAF AMD
KPHX 302108Z 3021/3118 12005KT P6SM BKN250
     FM310000 32005KT P6SM BKN250
     FM310500 08005KT P6SM BKN250=



000
FTUS45 KPSR 301900 AAA
TAFIWA
TAF AMD
KIWA 301920Z 3019/3118 31004KT P6SM BKN250
     FM310300 11005KT P6SM BKN250=



000
FTUS45 KPSR 301700
TAFIPL
TAF
KIPL 301720Z 3018/3118 VRB03KT P6SM BKN250
     FM310300 27006KT P6SM BKN250
     FM311500 VRB03KT P6SM SCT250=



000
FTUS45 KPSR 301700
TAFIWA
TAF
KIWA 301720Z 3018/3118 13004KT P6SM SCT250
     FM302200 31004KT P6SM BKN250
     FM310300 11005KT P6SM BKN250=



000
FTUS45 KPSR 301700
TAFBLH
TAF
KBLH 301720Z 3018/3118 VRB03KT P6SM BKN250
     FM310100 22006KT P6SM BKN250
     FM310900 35005KT P6SM BKN250=



000
FTUS45 KPSR 301700
TAFPHX
TAF
KPHX 301720Z 3018/3118 11006KT P6SM SCT250
     FM310000 32005KT P6SM BKN250
     FM310500 08005KT P6SM BKN250=



000
FTUS45 KPSR 301400 AAA
TAFPHX
TAF AMD
KPHX 301458Z 3015/3112 10006KT P6SM SCT250
     FM310000 32005KT P6SM BKN250
     FM310500 08005KT P6SM BKN250=



000
FTUS45 KPSR 301100
TAFIPL
TAF
KIPL 301120Z 3012/3112 29005KT P6SM SCT250
     FM301600 VRB03KT P6SM BKN250
     FM310500 29005KT P6SM SCT250=



000
FTUS45 KPSR 301100
TAFIWA
TAF
KIWA 301120Z 3012/3112 12005KT P6SM FEW250
     FM301900 29004KT P6SM BKN250
     FM310500 12005KT P6SM BKN250
      AMD LTD TO CLD VIS AND WIND TIL 301300=



000
FTUS45 KPSR 301100
TAFPHX
TAF
KPHX 301120Z 3012/3112 09005KT P6SM FEW250
     FM301900 VRB05KT P6SM BKN250
      TEMPO 3022/3102 28004KT
     FM310500 06005KT P6SM BKN250=



000
FTUS45 KPSR 301100
TAFBLH
TAF
KBLH 301120Z 3012/3112 VRB05KT P6SM BKN250=



000
FTUS45 KPSR 300800 AAA
TAFPHX
TAF AMD
KPHX 300839Z 3009/3106 VRB03KT P6SM FEW250
     FM301000 09005KT P6SM FEW250
     FM302100 VRB05KT P6SM BKN250
     FM310500 09005KT P6SM BKN250=



000
FTUS45 KPSR 300500
TAFIWA
TAF
KIWA 300521Z 3006/3106 VRB04KT P6SM SKC
     FM300700 12005KT P6SM SKC
     FM302100 VRB04KT P6SM BKN250
     FM310500 12005KT P6SM BKN250
      AMD LTD TO CLD VIS AND WIND TIL 301300=



000
FTUS45 KPSR 300500
TAFIPL
TAF
KIPL 300521Z 3006/3106 29004KT P6SM FEW250
     FM301300 VRB03KT P6SM BKN250
     FM310400 30005KT P6SM SCT250=



000
FTUS45 KPSR 300500
TAFPHX
TAF
KPHX 300521Z 3006/3106 29004KT P6SM SKC
     FM300700 09005KT P6SM FEW250
     FM302100 VRB05KT P6SM BKN250
     FM310500 09005KT P6SM BKN250=



000
FTUS45 KPSR 300500
TAFBLH
TAF
KBLH 300521Z 3006/3106 35005KT P6SM SKC
     FM301200 VRB04KT P6SM BKN250=



000
FTUS45 KPSR 300200 AAA
TAFPHX
TAF AMD
KPHX 300252Z 3003/3024 27004KT P6SM SKC
     FM300700 09005KT P6SM FEW250
     FM302100 VRB05KT P6SM BKN250=



000
FTUS45 KPSR 292300
TAFIPL
TAF
KIPL 292321Z 3000/3024 29005KT P6SM FEW250
     FM301300 VRB03KT P6SM BKN250=



000
FTUS45 KPSR 292300
TAFIWA
TAF
KIWA 292321Z 3000/3024 30004KT P6SM SKC
     FM300400 12005KT P6SM SKC
     FM302100 VRB04KT P6SM BKN250
      AMD LTD TO CLD VIS AND WIND 3003/3013=



000
FTUS45 KPSR 292300
TAFPHX
TAF
KPHX 292321Z 3000/3024 31005KT P6SM SKC
     FM300700 09005KT P6SM FEW250
     FM302100 VRB05KT P6SM BKN250=



000
FTUS45 KPSR 292300
TAFBLH
TAF
KBLH 292321Z 3000/3024 35005KT P6SM SKC
     FM301200 VRB04KT P6SM BKN250=



000
FTUS45 KPSR 292000 AAB
TAFPHX
TAF AMD
KPHX 292059Z 2921/3018 31005KT P6SM SKC
     FM300600 09004KT P6SM FEW250=



000
FTUS45 KPSR 292000 AAA
TAFPHX
TAF AMD
KPHX 292010Z 2920/3018 30005KT P6SM SKC
     FM300600 09004KT P6SM FEW250=



000
FTUS45 KPSR 291700
TAFBLH
TAF
KBLH 291720Z 2918/3018 35005KT P6SM SKC
     FM300300 VRB04KT P6SM FEW250=



000
FTUS45 KPSR 291700
TAFIWA
TAF
KIWA 291720Z 2918/3018 13004KT P6SM SKC
     FM291900 30005KT P6SM SKC
     FM300300 12004KT P6SM FEW250=



000
FTUS45 KPSR 291700
TAFIPL
TAF
KIPL 291720Z 2918/3018 VRB03KT P6SM SKC
     FM300100 27006KT P6SM FEW250
     FM301600 VRB03KT P6SM BKN250=



000
FTUS45 KPSR 291700
TAFPHX
TAF
KPHX 291720Z 2918/3018 11004KT P6SM SKC
     FM292100 29005KT P6SM SKC
     FM300600 09004KT P6SM FEW250=



000
FTUS45 KPSR 291400 AAA
TAFPHX
TAF AMD
KPHX 291444Z 2915/3012 10005KT P6SM SKC
     FM292100 27005KT P6SM SKC
     FM300600 09004KT P6SM FEW250=



000
FTUS45 KPSR 291100
TAFBLH
TAF
KBLH 291120Z 2912/3012 VRB04KT P6SM SKC
     FM291800 35004KT P6SM SKC
     FM300600 VRB04KT P6SM SCT250=



000
FTUS45 KPSR 291100
TAFIWA
TAF
KIWA 291120Z 2912/3012 11005KT P6SM SKC
     FM291900 30005KT P6SM SKC
     FM300400 11004KT P6SM FEW250
      AMD LTD TO CLD VIS AND WIND TIL 291300=



000
FTUS45 KPSR 291100
TAFIPL
TAF
KIPL 291120Z 2912/3012 32008KT P6SM SKC
     FM291800 VRB03KT P6SM SKC
     FM300500 27005KT P6SM SCT250=



000
FTUS45 KPSR 291100
TAFPHX
TAF
KPHX 291120Z 2912/3012 10005KT P6SM SKC
     FM292100 27004KT P6SM SKC
     FM300500 VRB04KT P6SM FEW250
     FM300900 09004KT P6SM SCT250=



000
FTUS45 KPSR 290800 AAA
TAFPHX
TAF AMD
KPHX 290836Z 2909/3006 VRB03KT P6SM SKC
     FM291000 10005KT P6SM SKC
     FM292100 27004KT P6SM SKC=



000
FTUS45 KPSR 290500
TAFIPL
TAF
KIPL 290520Z 2906/3006 32008KT P6SM SKC
     FM291900 VRB03KT P6SM SKC=



000
FTUS45 KPSR 290500
TAFIWA
TAF
KIWA 290520Z 2906/3006 11005KT P6SM SKC
     FM291900 30005KT P6SM SKC
     FM300400 08003KT P6SM SKC
      AMD LTD TO CLD VIS AND WIND TIL 291300=



000
FTUS45 KPSR 290500
TAFPHX
TAF
KPHX 290520Z 2906/3006 27005KT P6SM SKC
     FM290800 10005KT P6SM SKC
     FM292100 27004KT P6SM SKC=



000
FTUS45 KPSR 290500
TAFBLH
TAF
KBLH 290520Z 2906/3006 36007KT P6SM SKC=



000
FTUS45 KPSR 290200 AAA
TAFPHX
TAF AMD
KPHX 290251Z 2903/2924 27005KT P6SM SKC
     FM290800 10005KT P6SM SKC
     FM292100 27004KT P6SM SKC=



000
FTUS45 KPSR 282300
TAFIPL
TAF
KIPL 282339Z 2900/2924 VRB03KT P6SM SKC
     FM290300 22008KT P6SM SKC
     FM291900 VRB03KT P6SM SKC=



000
FTUS45 KPSR 282300
TAFBLH
TAF
KBLH 282339Z 2900/2924 VRB05KT P6SM SKC
     FM290500 36007KT P6SM SKC=



000
FTUS45 KPSR 282300
TAFPHX
TAF
KPHX 282339Z 2900/2924 VRB05KT P6SM SKC
      TEMPO 2900/2902 27005KT
     FM290800 10005KT P6SM SKC
     FM292100 27004KT P6SM SKC=



000
FTUS45 KPSR 282300
TAFIWA
TAF
KIWA 282339Z 2900/2924 30006KT P6SM SKC
     FM290500 11005KT P6SM SKC
     FM291900 30005KT P6SM SKC
      AMD LTD TO CLD VIS AND WIND 2903/2913=



000
FTUS45 KPSR 282300
TAFIWA
TAF
KIWA 282320Z 2900/2924 30006KT P6SM SKC
     FM290500 11005KT P6SM SKC
     FM291900 30005KT P6SM SKC
      AMD LTD TO CLD VIS AND WIND 2903/2913=



000
FTUS45 KPSR 282300
TAFBLH
TAF
KBLH 282320Z 2900/2924 VRB05KT P6SM SKC
     FM290500 36007KT P6SM SKC=



000
FTUS45 KPSR 282300
TAFIPL
TAF
KIPL 282320Z 2900/2924 VRB03KT P6SM SKC
     FM290300 22008KT P6SM SKC
     FM291900 VRB03KT P6SM SKC=



000
FTUS45 KPSR 282300
TAFPHX
TAF
KPHX 282320Z 2900/2924 VRB05KT P6SM SKC
      TEMPO 2900/2902 27005KT
     FM290800 10005KT P6SM SKC
     FM292100 27004KT P6SM SKC=



000
FTUS45 KPSR 282000 AAA
TAFPHX
TAF AMD
KPHX 282032Z 2821/2918 VRB05KT P6SM SKC
      TEMPO 2822/2902 27005KT
     FM290800 10005KT P6SM SKC=



000
FTUS45 KPSR 281700
TAFIPL
TAF
KIPL 281738Z 2818/2918 VRB05KT P6SM SKC=



000
FTUS45 KPSR 281700
TAFBLH
TAF
KBLH 281738Z 2818/2918 VRB05KT P6SM FEW250
     FM290500 36007KT P6SM SKC=



000
FTUS45 KPSR 281700
TAFPHX
TAF
KPHX 281738Z 2818/2918 VRB04KT P6SM SKC
      TEMPO 2822/2902 27005KT
     FM290800 10005KT P6SM SKC=



000
FTUS45 KPSR 281700
TAFIWA
TAF
KIWA 281738Z 2818/2918 14005KT P6SM SKC
     FM282000 30006KT P6SM SKC
     FM290500 11005KT P6SM SKC=



000
FTUS45 KPSR 281400 AAA
TAFPHX
TAF AMD
KPHX 281444Z 2815/2912 09006KT P6SM SKC
     FM281900 VRB04KT P6SM SKC
      TEMPO 2822/2902 27005KT
     FM290800 10005KT P6SM SKC=



    US Dept of Commerce
    National Oceanic and Atmospheric Administration
    National Weather Service
    1325 East West Highway
    Silver Spring, MD 20910
    Page Author: NWS Internet Services Team
Disclaimer
Information Quality
Credits
Glossary
Privacy Policy
Freedom of Information Act (FOIA)
About Us
Career Opportunities